Time,TemperatureF,DewpointF,PressureIn,WindDirection,WindDirectionDegrees,WindSpeedMPH,WindSpeedGustMPH,Humidity,HourlyPrecipIn,Conditions,Clouds,dailyrainin,SoftwareType,DateUTC
2013-04-28 00:01:00,45.0,43.0,30.04,SSE,147,0.0,0.0,94,0.00,,,0.00,weatherlink.com 1.10,2013-04-28 07:01:00,
2013-04-28 00:16:00,44.9,43.0,30.04,SSE,147,0.0,0.0,94,0.00,,,0.00,weatherlink.com 1.10,2013-04-28 07:16:00,
2013-04-28 00:31:00,44.8,43.0,30.04,SSE,147,0.0,0.0,94,0.00,,,0.00,weatherlink.com 1.10,2013-04-28 07:31:00,
2013-04-28 00:46:00,44.5,43.0,30.04,SSE,147,0.0,0.0,94,0.00,,,0.00,weatherlink.com 1.10,2013-04-28 07:46:00,
2013-04-28 01:01:00,44.4,43.0,30.03,SSE,147,0.0,0.0,94,0.00,,,0.00,weatherlink.com 1.10,2013-04-28 08:01:00,
2013-04-28 01:16:00,44.1,43.0,30.03,SSE,147,0.0,0.0,94,0.00,,,0.00,weatherlink.com 1.10,2013-04-28 08:16:00,
2013-04-28 01:31:00,43.8,42.0,30.03,SSE,147,0.0,0.0,94,0.00,,,0.00,weatherlink.com 1.10,2013-04-28 08:31:00,
2013-04-28 01:46:00,43.6,42.0,30.03,SSE,147,0.0,0.0,94,0.00,,,0.00,weatherlink.com 1.10,2013-04-28 08:46:00,
2013-04-28 02:01:00,43.7,42.0,30.03,SSE,147,0.0,0.0,95,0.00,,,0.00,weatherlink.com 1.10,2013-04-28 09:01:00,
2013-04-28 02:16:00,43.5,42.0,30.02,SSE,147,0.0,0.0,95,0.00,,,0.00,weatherlink.com 1.10,2013-04-28 09:16:00,
2013-04-28 02:31:00,43.7,42.0,30.02,SSE,147,0.0,0.0,95,0.00,,,0.00,weatherlink.com 1.10,2013-04-28 09:31:00,
2013-04-28 02:46:00,43.3,42.0,30.02,SSE,147,0.0,0.0,95,0.00,,,0.00,weatherlink.com 1.10,2013-04-28 09:46:00,
2013-04-28 03:01:00,42.9,42.0,30.02,SSE,147,0.0,0.0,95,0.00,,,0.00,weatherlink.com 1.10,2013-04-28 10:01:00,
2013-04-28 03:16:00,43.3,42.0,30.02,SSE,147,0.0,0.0,95,0.00,,,0.00,weatherlink.com 1.10,2013-04-28 10:16:00,
2013-04-28 03:31:00,43.5,42.0,30.01,SSE,147,0.0,0.0,95,0.00,,,0.00,weatherlink.com 1.10,2013-04-28 10:31:00,
2013-04-28 03:46:00,43.1,42.0,30.01,SSE,147,0.0,0.0,95,0.00,,,0.00,weatherlink.com 1.10,2013-04-28 10:46:00,
2013-04-28 04:02:00,42.9,42.0,30.00,SSE,147,0.0,0.0,95,0.00,,,0.00,weatherlink.com 1.10,2013-04-28 11:02:00,
2013-04-28 04:17:00,42.5,41.0,30.00,SSE,147,0.0,0.0,95,0.00,,,0.00,weatherlink.com 1.10,2013-04-28 11:17:00,
2013-04-28 04:32:00,42.5,41.0,30.00,SSE,147,0.0,0.0,95,0.00,,,0.00,weatherlink.com 1.10,2013-04-28 11:32:00,
2013-04-28 04:47:00,42.6,41.0,30.00,SSE,147,0.0,0.0,95,0.00,,,0.00,weatherlink.com 1.10,2013-04-28 11:47:00,
2013-04-28 05:02:00,42.6,41.0,30.00,SSE,147,0.0,0.0,95,0.00,,,0.00,weatherlink.com 1.10,2013-04-28 12:02:00,
2013-04-28 05:17:00,42.4,41.0,30.00,SSE,147,0.0,0.0,95,0.00,,,0.00,weatherlink.com 1.10,2013-04-28 12:17:00,
2013-04-28 05:32:00,42.2,41.0,30.00,SSE,147,0.0,0.0,95,0.00,,,0.00,weatherlink.com 1.10,2013-04-28 12:32:00,
2013-04-28 05:47:00,42.0,41.0,30.00,South,183,0.0,0.0,95,0.00,,,0.00,weatherlink.com 1.10,2013-04-28 12:47:00,
2013-04-28 06:02:00,42.0,41.0,30.00,WSW,238,0.0,1.0,95,0.00,,,0.00,weatherlink.com 1.10,2013-04-28 13:02:00,
2013-04-28 06:17:00,41.9,41.0,30.00,WSW,238,0.0,0.0,95,0.00,,,0.00,weatherlink.com 1.10,2013-04-28 13:17:00,
2013-04-28 06:32:00,41.6,40.0,30.00,WSW,238,0.0,0.0,95,0.00,,,0.00,weatherlink.com 1.10,2013-04-28 13:32:00,
2013-04-28 06:47:00,41.5,40.0,30.01,WSW,238,0.0,0.0,95,0.00,,,0.00,weatherlink.com 1.10,2013-04-28 13:47:00,
2013-04-28 07:02:00,41.9,41.0,30.01,WSW,238,0.0,0.0,96,0.00,,,0.00,weatherlink.com 1.10,2013-04-28 14:02:00,
2013-04-28 10:48:00,65.4,55.0,30.01,WSW,247,0.0,3.0,69,0.00,,,0.00,weatherlink.com 1.10,2013-04-28 17:48:00,
2013-04-28 11:03:00,67.4,55.0,30.01,SSE,150,0.0,3.0,65,0.00,,,0.00,weatherlink.com 1.10,2013-04-28 18:03:00,
2013-04-28 11:18:00,69.0,54.0,30.00,SSW,211,0.0,2.0,60,0.00,,,0.00,weatherlink.com 1.10,2013-04-28 18:18:00,
2013-04-28 11:33:00,70.5,56.0,30.00,West,274,0.0,3.0,61,0.00,,,0.00,weatherlink.com 1.10,2013-04-28 18:33:00,
2013-04-28 11:48:00,72.5,56.0,30.00,SSW,192,0.0,4.0,57,0.00,,,0.00,weatherlink.com 1.10,2013-04-28 18:48:00,
2013-04-28 12:03:00,74.0,57.0,30.00,SW,214,1.0,3.0,55,0.00,,,0.00,weatherlink.com 1.10,2013-04-28 19:03:00,
2013-04-28 12:18:00,75.5,58.0,29.99,SSW,213,0.0,3.0,55,0.00,,,0.00,weatherlink.com 1.10,2013-04-28 19:18:00,
2013-04-28 12:33:00,77.1,58.0,29.98,SSW,211,1.0,3.0,52,0.00,,,0.00,weatherlink.com 1.10,2013-04-28 19:33:00,
2013-04-28 12:48:00,77.0,59.0,29.98,SW,222,1.0,3.0,54,0.00,,,0.00,weatherlink.com 1.10,2013-04-28 19:48:00,
2013-04-28 13:03:00,78.8,59.0,29.97,South,169,0.0,2.0,51,0.00,,,0.00,weatherlink.com 1.10,2013-04-28 20:03:00,
2013-04-28 13:18:00,79.8,58.0,29.97,WSW,257,0.0,4.0,47,0.00,,,0.00,weatherlink.com 1.10,2013-04-28 20:18:00,
2013-04-28 13:33:00,81.1,61.0,29.96,SSW,205,1.0,4.0,51,0.00,,,0.00,weatherlink.com 1.10,2013-04-28 20:33:00,
2013-04-28 13:50:00,81.9,60.0,29.95,WSW,242,0.0,3.0,47,0.00,,,0.00,weatherlink.com 1.10,2013-04-28 20:50:00,
2013-04-28 14:04:00,82.5,60.0,29.94,SE,138,0.0,3.0,46,0.00,,,0.00,weatherlink.com 1.10,2013-04-28 21:04:00,
2013-04-28 14:19:00,82.6,59.0,29.94,SSW,192,1.0,3.0,45,0.00,,,0.00,weatherlink.com 1.10,2013-04-28 21:19:00,
2013-04-28 14:34:00,83.7,60.0,29.93,WSW,247,0.0,3.0,44,0.00,,,0.00,weatherlink.com 1.10,2013-04-28 21:34:00,
2013-04-28 17:04:00,85.2,54.0,29.87,West,271,2.0,8.0,34,0.00,,,0.00,weatherlink.com 1.10,2013-04-29 00:04:00,
2013-04-28 17:19:00,85.0,54.0,29.87,WNW,286,0.0,7.0,35,0.00,,,0.00,weatherlink.com 1.10,2013-04-29 00:19:00,
2013-04-28 17:34:00,85.2,53.0,29.87,NW,306,1.0,6.0,33,0.00,,,0.00,weatherlink.com 1.10,2013-04-29 00:34:00,
2013-04-28 17:49:00,85.1,54.0,29.86,WNW,303,3.0,7.0,34,0.00,,,0.00,weatherlink.com 1.10,2013-04-29 00:49:00,
2013-04-28 18:04:00,84.5,54.0,29.86,WSW,242,3.0,5.0,35,0.00,,,0.00,weatherlink.com 1.10,2013-04-29 01:04:00,
2013-04-28 18:19:00,84.3,54.0,29.85,WSW,253,0.0,6.0,35,0.00,,,0.00,weatherlink.com 1.10,2013-04-29 01:19:00,
2013-04-28 18:35:00,84.1,54.0,29.85,WNW,285,0.0,6.0,35,0.00,,,0.00,weatherlink.com 1.10,2013-04-29 01:35:00,
2013-04-28 18:50:00,84.0,54.0,29.84,WSW,250,0.0,3.0,36,0.00,,,0.00,weatherlink.com 1.10,2013-04-29 01:50:00,
2013-04-28 19:05:00,83.3,55.0,29.84,WSW,250,0.0,0.0,38,0.00,,,0.00,weatherlink.com 1.10,2013-04-29 02:05:00,
2013-04-28 19:20:00,82.0,57.0,29.84,WSW,250,0.0,0.0,43,0.00,,,0.00,weatherlink.com 1.10,2013-04-29 02:20:00,
2013-04-28 19:35:00,79.9,58.0,29.83,SW,222,0.0,0.0,48,0.00,,,0.00,weatherlink.com 1.10,2013-04-29 02:35:00,
2013-04-28 19:50:00,77.0,58.0,29.83,SSW,193,0.0,1.0,53,0.00,,,0.00,weatherlink.com 1.10,2013-04-29 02:50:00,
2013-04-28 20:05:00,74.4,59.0,29.84,South,190,0.0,0.0,58,0.00,,,0.00,weatherlink.com 1.10,2013-04-29 03:05:00,
2013-04-28 20:20:00,71.7,57.0,29.84,South,190,0.0,0.0,61,0.00,,,0.00,weatherlink.com 1.10,2013-04-29 03:20:00,
2013-04-28 20:35:00,69.5,58.0,29.84,South,190,0.0,0.0,66,0.00,,,0.00,weatherlink.com 1.10,2013-04-29 03:35:00,
2013-04-28 20:50:00,67.5,57.0,29.84,South,190,0.0,0.0,69,0.00,,,0.00,weatherlink.com 1.10,2013-04-29 03:50:00,
2013-04-28 21:05:00,65.9,56.0,29.85,South,190,0.0,0.0,71,0.00,,,0.00,weatherlink.com 1.10,2013-04-29 04:05:00,
2013-04-28 21:20:00,64.5,56.0,29.85,South,190,0.0,0.0,73,0.00,,,0.00,weatherlink.com 1.10,2013-04-29 04:20:00,
2013-04-28 21:35:00,63.4,55.0,29.85,South,190,0.0,0.0,75,0.00,,,0.00,weatherlink.com 1.10,2013-04-29 04:35:00,
2013-04-28 21:50:00,62.5,55.0,29.86,South,190,0.0,0.0,77,0.00,,,0.00,weatherlink.com 1.10,2013-04-29 04:50:00,
2013-04-28 22:05:00,61.8,55.0,29.86,South,190,0.0,0.0,79,0.00,,,0.00,weatherlink.com 1.10,2013-04-29 05:05:00,
2013-04-28 22:20:00,61.3,55.0,29.86,South,190,0.0,0.0,80,0.00,,,0.00,weatherlink.com 1.10,2013-04-29 05:20:00,
2013-04-28 22:35:00,60.9,55.0,29.85,South,190,0.0,0.0,80,0.00,,,0.00,weatherlink.com 1.10,2013-04-29 05:35:00,
2013-04-28 22:50:00,60.4,55.0,29.85,South,190,0.0,0.0,81,0.00,,,0.00,weatherlink.com 1.10,2013-04-29 05:50:00,
2013-04-28 23:05:00,59.6,54.0,29.85,WNW,288,0.0,0.0,81,0.00,,,0.00,weatherlink.com 1.10,2013-04-29 06:05:00,
2013-04-28 23:20:00,58.9,53.0,29.85,WNW,288,0.0,0.0,82,0.00,,,0.00,weatherlink.com 1.10,2013-04-29 06:20:00,
2013-04-28 23:35:00,58.7,54.0,29.85,WNW,288,0.0,0.0,83,0.00,,,0.00,weatherlink.com 1.10,2013-04-29 06:35:00,
2013-04-28 23:50:00,58.3,54.0,29.85,WNW,288,0.0,0.0,84,0.00,,,0.00,weatherlink.com 1.10,2013-04-29 06:50:00,